Terminal Aerodrome Forecast
Issued by NWS Amarillo, TX

Home | Current Version | Previous Version | Text Only | Print | Product List | Glossary On
Versions: 1 2 3 4 5 6 7 8 9 10 11 12 13 14 15 16 17
524
FTUS44 KAMA 212341
TAFAMA
TAF
KAMA 212341Z 2200/2224 05010KT P6SM OVC020
     FM220700 VRB06KT P6SM OVC010
     FM221500 19012KT P6SM OVC010
     FM221900 20015G25KT P6SM SCT045=

USA.gov is the U.S. government's official web portal to all federal, state and local government web resources and services.